createdAt,value
2018-10-17T00:00:00.102Z,20.10
2018-10-17T00:00:13.175Z,20.08
2018-10-17T00:00:24.956Z,20.07
2018-10-17T00:00:36.745Z,20.08
2018-10-17T00:00:48.497Z,20.08
2018-10-17T00:01:00.316Z,20.08
2018-10-17T00:01:12.133Z,20.09
2018-10-17T00:01:23.872Z,20.10
2018-10-17T00:01:35.643Z,20.08
2018-10-17T00:01:47.417Z,20.09
2018-10-17T00:01:59.187Z,20.09
2018-10-17T00:02:10.964Z,20.08
2018-10-17T00:02:22.723Z,20.09
2018-10-17T00:02:34.524Z,20.08
2018-10-17T00:02:46.286Z,20.08
2018-10-17T00:02:58.090Z,20.09
2018-10-17T00:03:09.866Z,20.08
2018-10-17T00:03:21.629Z,20.08
2018-10-17T00:03:33.414Z,20.08
2018-10-17T00:03:45.179Z,20.08
2018-10-17T00:03:56.985Z,20.08
2018-10-17T00:04:08.763Z,20.08
2018-10-17T00:04:20.659Z,20.09
2018-10-17T00:04:32.407Z,20.07
2018-10-17T00:04:44.159Z,20.08
2018-10-17T00:04:55.990Z,20.08
2018-10-17T00:05:08.168Z,20.09
2018-10-17T00:05:19.855Z,20.09
2018-10-17T00:05:31.606Z,20.08
2018-10-17T00:05:43.376Z,20.08
2018-10-17T00:05:55.137Z,20.08
2018-10-17T00:06:06.902Z,20.10
2018-10-17T00:06:18.685Z,20.08
2018-10-17T00:06:30.434Z,20.08
2018-10-17T00:06:42.199Z,20.09
2018-10-17T00:06:54.008Z,20.08
2018-10-17T00:07:05.740Z,20.08
2018-10-17T00:07:17.564Z,20.08
2018-10-17T00:07:29.380Z,20.07
2018-10-17T00:07:41.158Z,20.08
2018-10-17T00:07:52.930Z,20.08
2018-10-17T00:08:04.682Z,20.09
2018-10-17T00:08:16.446Z,20.08
2018-10-17T00:08:28.195Z,20.09
2018-10-17T00:08:39.951Z,20.09
2018-10-17T00:08:51.711Z,20.09
2018-10-17T00:09:03.695Z,20.08
2018-10-17T00:09:15.443Z,20.07
2018-10-17T00:09:27.205Z,20.08
2018-10-17T00:09:38.996Z,20.08
2018-10-17T00:09:50.763Z,20.07
2018-10-17T00:10:02.570Z,20.08
2018-10-17T00:10:14.344Z,20.08
2018-10-17T00:10:26.109Z,20.07
2018-10-17T00:10:37.865Z,20.08
2018-10-17T00:10:49.642Z,20.07
2018-10-17T00:11:01.458Z,20.07
2018-10-17T00:11:13.177Z,20.08
2018-10-17T00:11:24.947Z,20.07
2018-10-17T00:11:36.705Z,20.08
2018-10-17T00:11:48.462Z,20.07
2018-10-17T00:12:00.209Z,20.08
2018-10-17T00:12:11.962Z,20.06
2018-10-17T00:12:23.743Z,20.07
2018-10-17T00:12:35.506Z,20.08
2018-10-17T00:12:47.841Z,20.08
2018-10-17T00:12:59.634Z,20.08
2018-10-17T00:13:11.383Z,20.07
2018-10-17T00:13:23.136Z,20.08
2018-10-17T00:13:34.922Z,20.08
2018-10-17T00:13:46.663Z,20.08
2018-10-17T00:13:58.419Z,20.07
2018-10-17T00:14:10.172Z,20.07
2018-10-17T00:14:21.921Z,20.08
2018-10-17T00:14:33.722Z,20.09
2018-10-17T00:14:45.482Z,20.08
2018-10-17T00:14:57.219Z,20.07
2018-10-17T00:15:09.479Z,20.08
2018-10-17T00:15:21.250Z,20.08
2018-10-17T00:15:32.998Z,20.08
2018-10-17T00:15:44.748Z,20.08
2018-10-17T00:15:56.540Z,20.08
2018-10-17T00:16:08.291Z,20.07
2018-10-17T00:16:20.079Z,20.08
2018-10-17T00:16:31.840Z,20.08
2018-10-17T00:16:44.381Z,20.07
2018-10-17T00:16:56.182Z,20.07
2018-10-17T00:17:08.621Z,20.07
2018-10-17T00:17:20.311Z,20.07
2018-10-17T00:17:32.069Z,20.06
2018-10-17T00:17:44.863Z,20.07
2018-10-17T00:17:56.708Z,20.07
2018-10-17T00:18:08.492Z,20.08
2018-10-17T00:18:20.282Z,20.07
2018-10-17T00:18:32.824Z,20.08
2018-10-17T00:18:44.589Z,20.06
2018-10-17T00:18:56.393Z,20.08
2018-10-17T00:19:08.207Z,20.06
2018-10-17T00:19:19.897Z,20.06
2018-10-17T00:19:31.684Z,20.07
2018-10-17T00:19:43.439Z,20.06
2018-10-17T00:19:55.220Z,20.07
2018-10-17T00:20:07.009Z,20.08
2018-10-17T00:20:18.786Z,20.08
2018-10-17T00:20:30.567Z,20.07
2018-10-17T00:20:42.348Z,20.07
2018-10-17T00:20:54.116Z,20.07
2018-10-17T00:21:05.912Z,20.07
2018-10-17T00:21:17.658Z,20.07
2018-10-17T00:21:29.414Z,20.07
2018-10-17T00:21:41.173Z,20.06
2018-10-17T00:21:52.931Z,20.06
2018-10-17T00:22:04.669Z,20.07
2018-10-17T00:22:17.077Z,20.07
2018-10-17T00:22:28.836Z,20.07
2018-10-17T00:22:40.590Z,20.07
2018-10-17T00:22:52.767Z,20.07
2018-10-17T00:23:04.542Z,20.06
2018-10-17T00:23:16.381Z,20.07
2018-10-17T00:23:28.127Z,20.07
2018-10-17T00:23:39.875Z,20.07
2018-10-17T00:23:51.663Z,20.06
2018-10-17T00:24:03.423Z,20.07
2018-10-17T00:24:15.200Z,20.06
2018-10-17T00:24:26.995Z,20.06
2018-10-17T00:24:38.731Z,20.07
2018-10-17T00:24:50.516Z,20.07
2018-10-17T00:25:02.342Z,20.07
2018-10-17T00:25:14.129Z,20.08
2018-10-17T00:25:25.852Z,20.06
2018-10-17T00:25:37.616Z,20.07
2018-10-17T00:25:49.382Z,20.07
2018-10-17T00:26:01.153Z,20.06
2018-10-17T00:26:12.918Z,20.06
2018-10-17T00:26:25.485Z,20.05
2018-10-17T00:26:37.249Z,20.06
2018-10-17T00:26:49.181Z,20.06
2018-10-17T00:27:01.986Z,20.06
2018-10-17T00:27:13.731Z,20.06
2018-10-17T00:27:25.695Z,20.06
2018-10-17T00:27:37.548Z,20.06
2018-10-17T00:27:49.339Z,20.06
2018-10-17T00:28:01.098Z,20.06
2018-10-17T00:28:12.845Z,20.06
2018-10-17T00:28:24.602Z,20.06
2018-10-17T00:28:36.354Z,20.05
2018-10-17T00:28:48.119Z,20.05
2018-10-17T00:29:00.524Z,20.06
2018-10-17T00:29:12.323Z,20.06
2018-10-17T00:29:24.009Z,20.07
2018-10-17T00:29:35.760Z,20.06
2018-10-17T00:29:47.537Z,20.05
2018-10-17T00:29:59.338Z,20.05
2018-10-17T00:30:11.811Z,20.06
2018-10-17T00:30:24.451Z,20.05
2018-10-17T00:30:36.278Z,20.05
2018-10-17T00:30:48.049Z,20.06
2018-10-17T00:30:59.810Z,20.06
2018-10-17T00:31:11.615Z,20.06
2018-10-17T00:31:23.367Z,20.05
2018-10-17T00:31:35.143Z,20.06
2018-10-17T00:31:46.903Z,20.06
2018-10-17T00:31:58.672Z,20.06
2018-10-17T00:32:10.451Z,20.06
2018-10-17T00:32:22.227Z,20.06
2018-10-17T00:32:33.975Z,20.06
2018-10-17T00:32:45.726Z,20.05
2018-10-17T00:32:57.529Z,20.05
2018-10-17T00:33:09.303Z,20.06
2018-10-17T00:33:21.095Z,20.06
2018-10-17T00:33:32.889Z,20.05
2018-10-17T00:33:44.650Z,20.04
2018-10-17T00:33:56.444Z,20.04
2018-10-17T00:35:23.439Z,20.05
2018-10-17T00:35:35.191Z,20.05
2018-10-17T00:35:46.979Z,20.06
2018-10-17T00:35:58.714Z,20.06
2018-10-17T00:36:10.459Z,20.05
2018-10-17T00:36:22.221Z,20.05
2018-10-17T00:36:33.995Z,20.06
2018-10-17T00:36:45.771Z,20.04
2018-10-17T00:36:58.367Z,20.05
2018-10-17T00:37:10.276Z,20.06
2018-10-17T00:37:21.912Z,20.05
2018-10-17T00:37:34.686Z,20.05
2018-10-17T00:37:46.445Z,20.05
2018-10-17T00:37:59.067Z,20.05
2018-10-17T00:38:10.939Z,20.05
2018-10-17T00:38:22.721Z,20.05
2018-10-17T00:38:34.473Z,20.04
2018-10-17T00:38:46.311Z,20.05
2018-10-17T00:38:58.071Z,20.06
2018-10-17T00:39:11.085Z,20.06
2018-10-17T00:39:22.860Z,20.05
2018-10-17T00:39:34.606Z,20.06
2018-10-17T00:39:46.599Z,20.05
2018-10-17T00:39:58.342Z,20.06
2018-10-17T00:40:10.096Z,20.05
2018-10-17T00:40:24.774Z,20.05
2018-10-17T00:40:36.607Z,20.05
2018-10-17T00:40:48.346Z,20.05
2018-10-17T00:41:00.125Z,20.06
2018-10-17T00:41:12.602Z,20.05
2018-10-17T00:41:24.312Z,20.05
2018-10-17T00:41:36.174Z,20.04
2018-10-17T00:41:47.955Z,20.05
2018-10-17T00:41:59.739Z,20.05
2018-10-17T00:42:11.499Z,20.03
2018-10-17T00:42:23.263Z,20.05
2018-10-17T00:42:35.254Z,20.04
2018-10-17T00:42:47.003Z,20.03
2018-10-17T00:42:58.784Z,20.04
2018-10-17T00:43:10.619Z,20.04
2018-10-17T00:43:22.296Z,20.04
2018-10-17T00:43:34.039Z,20.04
2018-10-17T00:43:46.799Z,20.04
2018-10-17T00:43:58.557Z,20.04
2018-10-17T00:44:10.327Z,20.04
2018-10-17T00:44:22.109Z,20.03
2018-10-17T00:44:33.865Z,20.04
2018-10-17T00:44:45.615Z,20.03
2018-10-17T00:44:57.455Z,20.04
2018-10-17T00:45:09.270Z,20.03
2018-10-17T00:45:21.099Z,20.04
2018-10-17T00:45:32.851Z,20.04
2018-10-17T00:45:44.634Z,20.04
2018-10-17T00:45:56.416Z,20.04
2018-10-17T00:46:08.158Z,20.04
2018-10-17T00:46:19.917Z,20.05
2018-10-17T00:46:31.654Z,20.04
2018-10-17T00:46:43.474Z,20.05
2018-10-17T00:46:55.304Z,20.05
2018-10-17T00:47:07.123Z,20.04
2018-10-17T00:47:18.824Z,20.04
2018-10-17T00:47:30.579Z,20.04
2018-10-17T00:47:42.363Z,20.05
2018-10-17T00:47:54.123Z,20.05
2018-10-17T00:48:05.874Z,20.05
2018-10-17T00:48:17.738Z,20.05
2018-10-17T00:48:29.514Z,20.04
2018-10-17T00:48:41.522Z,20.05
2018-10-17T00:48:53.301Z,20.04
2018-10-17T00:49:05.236Z,20.05
2018-10-17T00:49:17.053Z,20.05
2018-10-17T00:49:28.749Z,20.05
2018-10-17T00:49:40.498Z,20.05
2018-10-17T00:49:52.298Z,20.04
2018-10-17T00:50:04.068Z,20.04
2018-10-17T00:50:15.850Z,20.04
2018-10-17T00:50:27.609Z,20.04
2018-10-17T00:50:39.375Z,20.04
2018-10-17T00:50:51.146Z,20.04
2018-10-17T00:51:02.912Z,20.04
2018-10-17T00:51:14.689Z,20.03
2018-10-17T00:51:26.499Z,20.04
2018-10-17T00:51:38.285Z,20.03
2018-10-17T00:51:50.050Z,20.04
2018-10-17T00:52:01.812Z,20.03
2018-10-17T00:52:13.563Z,20.04
2018-10-17T00:52:25.313Z,20.04
2018-10-17T00:52:37.162Z,20.05
2018-10-17T00:52:48.923Z,20.04
2018-10-17T00:53:01.525Z,20.03
2018-10-17T00:53:13.389Z,20.03
2018-10-17T00:53:25.096Z,20.05
2018-10-17T00:53:36.855Z,20.03
2018-10-17T00:53:48.605Z,20.03
2018-10-17T00:54:00.367Z,20.03
2018-10-17T00:54:12.115Z,20.04
2018-10-17T00:54:24.778Z,20.04
2018-10-17T00:54:36.548Z,20.03
2018-10-17T00:54:48.368Z,20.04
2018-10-17T00:55:00.130Z,20.03
2018-10-17T00:55:11.976Z,20.02
2018-10-17T00:55:23.745Z,20.02
2018-10-17T00:55:35.517Z,20.03
2018-10-17T00:55:47.264Z,20.03
2018-10-17T00:55:59.017Z,20.03
2018-10-17T00:56:10.797Z,20.03
2018-10-17T00:56:22.568Z,20.04
2018-10-17T00:56:35.056Z,20.02
2018-10-17T00:56:46.819Z,20.03
2018-10-17T00:56:58.578Z,20.03
2018-10-17T00:57:10.335Z,20.04
2018-10-17T00:57:22.086Z,20.04
2018-10-17T00:57:33.844Z,20.03
2018-10-17T00:57:45.628Z,20.03
2018-10-17T00:57:57.387Z,20.03
2018-10-17T00:58:09.160Z,20.04
2018-10-17T00:58:20.921Z,20.03
2018-10-17T00:58:32.682Z,20.04
2018-10-17T00:58:44.457Z,20.03
2018-10-17T00:58:56.298Z,20.03
2018-10-17T00:59:11.326Z,20.03
2018-10-17T00:59:23.055Z,20.04
2018-10-17T00:59:34.795Z,20.03
2018-10-17T00:59:46.536Z,20.04
2018-10-17T00:59:58.308Z,20.04
2018-10-17T01:00:10.076Z,20.02
2018-10-17T01:00:21.846Z,20.04
2018-10-17T01:00:33.611Z,20.03
2018-10-17T01:00:45.442Z,20.03
2018-10-17T01:00:57.254Z,20.02
2018-10-17T01:01:09.084Z,20.03
2018-10-17T01:01:20.841Z,20.04
2018-10-17T01:01:32.604Z,20.04
2018-10-17T01:01:44.855Z,20.04
2018-10-17T01:01:56.609Z,20.03
2018-10-17T01:02:08.389Z,20.03
2018-10-17T01:02:20.120Z,20.03
2018-10-17T01:02:31.912Z,20.03
2018-10-17T01:02:43.693Z,20.03
2018-10-17T01:02:55.456Z,20.03
2018-10-17T01:03:07.227Z,20.03
2018-10-17T01:03:19.000Z,20.02
2018-10-17T01:03:30.772Z,20.02
2018-10-17T01:03:42.523Z,20.02
2018-10-17T01:03:54.335Z,20.02
2018-10-17T01:04:06.108Z,20.02
2018-10-17T01:04:17.877Z,20.01
2018-10-17T01:04:29.652Z,20.03
2018-10-17T01:04:41.408Z,20.02
2018-10-17T01:04:53.227Z,20.02
2018-10-17T01:05:04.990Z,20.02
2018-10-17T01:05:16.864Z,20.00
2018-10-17T01:05:28.567Z,20.01
2018-10-17T01:05:40.318Z,20.01
2018-10-17T01:05:52.085Z,20.01
2018-10-17T01:06:03.850Z,20.02
2018-10-17T01:06:15.619Z,20.02
2018-10-17T01:06:27.387Z,20.01
2018-10-17T01:06:39.659Z,20.01
2018-10-17T01:06:51.423Z,20.01
2018-10-17T01:07:03.220Z,20.00
2018-10-17T01:07:15.039Z,20.03
2018-10-17T01:07:26.759Z,20.01
2018-10-17T01:07:38.582Z,20.01
2018-10-17T01:07:50.336Z,20.01
2018-10-17T01:08:02.081Z,20.02
2018-10-17T01:08:13.842Z,20.01
2018-10-17T01:08:25.636Z,20.01
2018-10-17T01:08:37.384Z,20.02
2018-10-17T01:08:49.441Z,20.02
2018-10-17T01:09:02.164Z,20.01
2018-10-17T01:09:14.688Z,20.03
2018-10-17T01:09:27.326Z,20.01
2018-10-17T01:09:39.064Z,20.02
2018-10-17T01:09:50.804Z,20.01
2018-10-17T01:10:03.250Z,20.00
2018-10-17T01:10:14.989Z,20.02
2018-10-17T01:10:26.747Z,20.02
2018-10-17T01:10:38.506Z,20.01
2018-10-17T01:10:51.479Z,20.01
2018-10-17T01:11:03.308Z,20.01
2018-10-17T01:11:15.102Z,20.01
2018-10-17T01:11:26.821Z,20.01
2018-10-17T01:11:39.166Z,20.02
2018-10-17T01:11:50.913Z,20.01
2018-10-17T01:12:02.665Z,20.01
2018-10-17T01:12:14.407Z,20.01
2018-10-17T01:12:26.146Z,20.00
2018-10-17T01:12:39.400Z,20.02
2018-10-17T01:12:51.212Z,20.01
2018-10-17T01:13:02.984Z,20.00
2018-10-17T01:13:14.732Z,20.00
2018-10-17T01:13:26.465Z,20.00
2018-10-17T01:13:38.208Z,20.01
2018-10-17T01:13:49.958Z,20.01
2018-10-17T01:14:01.701Z,20.01
2018-10-17T01:14:13.458Z,20.01
2018-10-17T01:14:25.220Z,20.01
2018-10-17T01:14:36.987Z,20.02
2018-10-17T01:14:48.739Z,20.02
2018-10-17T01:15:00.486Z,20.01
2018-10-17T01:15:12.234Z,19.99
2018-10-17T01:15:23.983Z,20.02
2018-10-17T01:15:35.737Z,20.01
2018-10-17T01:15:48.513Z,20.02
2018-10-17T01:16:00.264Z,20.01
2018-10-17T01:16:12.009Z,20.01
2018-10-17T01:16:23.750Z,20.01
2018-10-17T01:16:36.226Z,20.01
2018-10-17T01:16:47.987Z,20.02
2018-10-17T01:16:59.785Z,19.99
2018-10-17T01:17:11.560Z,20.01
2018-10-17T01:17:23.448Z,20.01
2018-10-17T01:17:35.238Z,20.01
2018-10-17T01:17:47.001Z,20.02
2018-10-17T01:17:59.493Z,20.01
2018-10-17T01:18:11.250Z,20.01
2018-10-17T01:18:22.994Z,20.01
2018-10-17T01:18:34.750Z,20.01
2018-10-17T01:18:46.508Z,20.01
2018-10-17T01:18:58.289Z,20.02
2018-10-17T01:19:10.119Z,20.01
2018-10-17T01:19:21.842Z,20.02
2018-10-17T01:19:33.591Z,20.02
2018-10-17T01:19:45.355Z,20.02
2018-10-17T01:19:57.105Z,20.02
2018-10-17T01:20:10.973Z,20.02
2018-10-17T01:20:22.723Z,19.99
2018-10-17T01:20:34.482Z,20.01
2018-10-17T01:20:46.231Z,20.02
2018-10-17T01:20:57.966Z,20.01
2018-10-17T01:21:09.701Z,20.01
2018-10-17T01:21:21.447Z,20.02
2018-10-17T01:21:33.586Z,20.02
2018-10-17T01:21:45.360Z,20.01
2018-10-17T01:21:57.146Z,20.00
2018-10-17T01:22:08.886Z,19.99
2018-10-17T01:22:20.647Z,20.01
2018-10-17T01:22:32.403Z,20.02
2018-10-17T01:22:45.399Z,20.01
2018-10-17T01:22:57.160Z,20.00
2018-10-17T01:23:09.837Z,20.01
2018-10-17T01:23:21.610Z,20.01
2018-10-17T01:23:33.895Z,20.01
2018-10-17T01:23:45.647Z,20.01
2018-10-17T01:23:57.419Z,20.00
2018-10-17T01:24:09.171Z,20.01
2018-10-17T01:24:20.924Z,19.98
2018-10-17T01:24:32.685Z,19.99
2018-10-17T01:24:44.435Z,19.99
2018-10-17T01:24:56.216Z,19.99
2018-10-17T01:25:08.000Z,19.98
2018-10-17T01:25:19.742Z,19.99
2018-10-17T01:25:31.519Z,19.99
2018-10-17T01:25:43.263Z,19.99
2018-10-17T01:25:55.011Z,19.99
2018-10-17T01:26:06.767Z,20.01
2018-10-17T01:26:18.527Z,20.01
2018-10-17T01:26:30.284Z,20.01
2018-10-17T01:26:42.020Z,20.01
2018-10-17T01:26:53.788Z,19.99
2018-10-17T01:27:05.569Z,19.99
2018-10-17T01:27:17.319Z,20.00
2018-10-17T01:27:29.058Z,20.01
2018-10-17T01:27:40.789Z,19.99
2018-10-17T01:27:52.521Z,19.99
2018-10-17T01:28:04.276Z,20.01
2018-10-17T01:28:16.057Z,20.00
2018-10-17T01:28:27.822Z,19.99
2018-10-17T01:28:39.578Z,19.99
2018-10-17T01:28:51.735Z,20.01
2018-10-17T01:29:04.285Z,19.98
2018-10-17T01:29:16.161Z,19.98
2018-10-17T01:29:28.320Z,19.98
2018-10-17T01:29:40.067Z,19.97
2018-10-17T01:29:51.830Z,19.98
2018-10-17T01:30:03.578Z,19.98
2018-10-17T01:30:15.343Z,19.97
2018-10-17T01:30:27.105Z,19.99
2018-10-17T01:30:38.868Z,19.99
2018-10-17T01:30:50.619Z,19.99
2018-10-17T01:31:02.444Z,19.98
2018-10-17T01:31:15.040Z,19.99
2018-10-17T01:31:26.721Z,19.98
2018-10-17T01:31:38.470Z,19.98
2018-10-17T01:31:50.236Z,19.99
2018-10-17T01:32:02.019Z,19.98
2018-10-17T01:32:13.784Z,19.99
2018-10-17T01:32:25.539Z,19.99
2018-10-17T01:32:37.287Z,19.98
2018-10-17T01:32:49.973Z,19.99
2018-10-17T01:33:01.733Z,19.99
2018-10-17T01:33:14.157Z,19.98
2018-10-17T01:33:25.915Z,19.99
2018-10-17T01:33:37.654Z,19.99
2018-10-17T01:33:49.438Z,19.99
2018-10-17T01:34:01.983Z,19.99
2018-10-17T01:34:13.747Z,20.00
2018-10-17T01:34:25.494Z,20.00
2018-10-17T01:34:37.266Z,19.99
2018-10-17T01:34:49.021Z,19.99
2018-10-17T01:35:00.824Z,20.00
2018-10-17T01:35:12.567Z,20.00
2018-10-17T01:35:24.293Z,20.01
2018-10-17T01:35:36.042Z,19.99
2018-10-17T01:35:47.778Z,19.99
2018-10-17T01:35:59.532Z,19.99
2018-10-17T01:36:11.283Z,19.99
2018-10-17T01:36:23.059Z,20.00
2018-10-17T01:36:34.821Z,20.00
2018-10-17T01:36:47.302Z,20.00
2018-10-17T01:36:59.068Z,20.01
2018-10-17T01:37:10.927Z,19.99
2018-10-17T01:37:22.598Z,19.99
2018-10-17T01:37:34.350Z,19.99
2018-10-17T01:37:46.098Z,19.98
2018-10-17T01:37:57.856Z,19.99
2018-10-17T01:38:09.612Z,19.99
2018-10-17T01:38:21.371Z,19.98
2018-10-17T01:38:33.121Z,19.98
2018-10-17T01:38:44.866Z,19.98
2018-10-17T01:38:56.601Z,19.99
2018-10-17T01:39:08.729Z,19.99
2018-10-17T01:39:20.484Z,19.98
2018-10-17T01:39:32.248Z,19.99
2018-10-17T01:39:44.011Z,19.99
2018-10-17T01:39:55.761Z,19.99
2018-10-17T01:40:07.914Z,19.99
2018-10-17T01:40:19.669Z,19.98
2018-10-17T01:40:31.412Z,19.98
2018-10-17T01:40:43.168Z,19.99
2018-10-17T01:40:54.921Z,19.99
2018-10-17T01:41:06.698Z,19.99
2018-10-17T01:41:18.631Z,19.99
2018-10-17T01:41:30.251Z,19.98
2018-10-17T01:41:42.043Z,19.99
2018-10-17T01:41:53.807Z,19.98
2018-10-17T01:42:05.672Z,19.97
2018-10-17T01:42:17.395Z,19.98
2018-10-17T01:42:29.154Z,19.98
2018-10-17T01:42:41.853Z,19.99
2018-10-17T01:42:53.646Z,19.99
2018-10-17T01:43:05.404Z,19.99
2018-10-17T01:43:17.207Z,19.97
2018-10-17T01:43:29.126Z,19.98
2018-10-17T01:43:40.984Z,19.98
2018-10-17T01:43:53.593Z,19.98
2018-10-17T01:44:05.330Z,19.99
2018-10-17T01:44:17.085Z,19.97
2018-10-17T01:44:28.843Z,19.97
2018-10-17T01:44:40.605Z,19.98
2018-10-17T01:44:52.367Z,19.97
2018-10-17T01:45:04.187Z,19.97
2018-10-17T01:45:15.952Z,19.98
2018-10-17T01:45:27.685Z,19.97
2018-10-17T01:45:39.447Z,19.98
2018-10-17T01:45:51.202Z,19.97
2018-10-17T01:46:02.952Z,19.98
2018-10-17T01:46:14.712Z,19.97
2018-10-17T01:46:26.451Z,19.97
2018-10-17T01:46:38.218Z,19.97
2018-10-17T01:46:49.975Z,19.97
2018-10-17T01:47:01.740Z,19.96
2018-10-17T01:47:13.559Z,19.95
2018-10-17T01:47:25.322Z,19.96
2018-10-17T01:47:37.265Z,19.97
2018-10-17T01:47:49.014Z,19.97
2018-10-17T01:48:00.778Z,19.98
2018-10-17T01:48:12.536Z,19.97
2018-10-17T01:48:24.292Z,19.97
2018-10-17T01:48:36.048Z,19.96
2018-10-17T01:48:47.791Z,19.95
2018-10-17T01:48:59.565Z,19.95
2018-10-17T01:49:11.348Z,19.95
2018-10-17T01:49:23.088Z,19.95
2018-10-17T01:49:34.843Z,19.96
2018-10-17T01:49:46.586Z,19.95
2018-10-17T01:49:58.332Z,19.95
2018-10-17T01:50:10.788Z,19.96
2018-10-17T01:50:22.535Z,19.96
2018-10-17T01:50:34.321Z,19.96
2018-10-17T01:50:46.059Z,19.96
2018-10-17T01:50:58.161Z,19.97
2018-10-17T01:51:09.918Z,19.96
2018-10-17T01:51:21.752Z,19.95
2018-10-17T01:51:33.494Z,19.96
2018-10-17T01:51:45.245Z,19.96
2018-10-17T01:51:56.985Z,19.95
2018-10-17T01:52:08.760Z,19.96
2018-10-17T01:52:20.515Z,19.95
2018-10-17T01:52:32.290Z,19.97
2018-10-17T01:52:44.043Z,19.95
2018-10-17T01:52:55.805Z,19.96
2018-10-17T01:53:07.618Z,19.95
2018-10-17T01:53:19.343Z,19.95
2018-10-17T01:53:31.250Z,19.96
2018-10-17T01:53:42.998Z,19.97
2018-10-17T01:53:54.762Z,19.95
2018-10-17T01:54:07.250Z,19.95
2018-10-17T01:54:18.992Z,19.96
2018-10-17T01:54:30.726Z,19.96
2018-10-17T01:54:42.508Z,19.97
2018-10-17T01:54:54.256Z,19.96
2018-10-17T01:55:06.055Z,19.98
2018-10-17T01:55:17.785Z,19.98
2018-10-17T01:55:29.540Z,19.98
2018-10-17T01:55:41.296Z,19.96
2018-10-17T01:55:53.042Z,19.96
2018-10-17T01:56:04.821Z,19.96
2018-10-17T01:56:16.561Z,19.96
2018-10-17T01:56:28.297Z,19.96
2018-10-17T01:56:40.093Z,19.96
2018-10-17T01:56:51.836Z,19.96
2018-10-17T01:57:03.584Z,19.96
2018-10-17T01:57:15.335Z,19.96
2018-10-17T01:57:27.083Z,19.95
2018-10-17T01:57:38.859Z,19.96
2018-10-17T01:57:50.611Z,19.96
2018-10-17T01:58:02.362Z,19.95
2018-10-17T01:58:25.571Z,19.96
2018-10-17T01:58:37.320Z,19.96
2018-10-17T01:58:49.075Z,19.96
2018-10-17T01:59:00.888Z,19.97
2018-10-17T01:59:12.593Z,19.97
2018-10-17T01:59:24.351Z,19.97
2018-10-17T01:59:36.174Z,19.95
2018-10-17T01:59:47.913Z,19.96
2018-10-17T01:59:59.653Z,19.96
2018-10-17T02:00:12.093Z,19.96
2018-10-17T02:00:23.899Z,19.95
2018-10-17T02:00:35.652Z,19.96
2018-10-17T02:00:47.408Z,19.96
2018-10-17T02:00:59.211Z,19.96
2018-10-17T02:01:11.022Z,19.96
2018-10-17T02:01:23.356Z,19.96
2018-10-17T02:01:35.136Z,19.96
2018-10-17T02:01:46.892Z,19.96
2018-10-17T02:01:59.671Z,19.95
2018-10-17T02:02:11.417Z,19.96
2018-10-17T02:02:23.877Z,19.95
2018-10-17T02:02:35.627Z,19.93
2018-10-17T02:02:48.266Z,19.94
2018-10-17T02:03:00.022Z,19.94
2018-10-17T02:03:11.779Z,19.95
2018-10-17T02:03:23.575Z,19.94
2018-10-17T02:03:35.330Z,19.94
2018-10-17T02:03:47.073Z,19.93
2018-10-17T02:03:58.829Z,19.94
2018-10-17T02:04:10.584Z,19.93
2018-10-17T02:04:22.360Z,19.94
2018-10-17T02:04:34.106Z,19.93
2018-10-17T02:04:45.860Z,19.94
2018-10-17T02:04:57.654Z,19.94
2018-10-17T02:05:09.414Z,19.94
2018-10-17T02:05:21.174Z,19.94
2018-10-17T02:05:32.920Z,19.93
2018-10-17T02:05:44.679Z,19.92
2018-10-17T02:05:56.438Z,19.93
2018-10-17T02:06:09.241Z,19.93
2018-10-17T02:06:21.717Z,19.93
2018-10-17T02:06:33.482Z,19.94
2018-10-17T02:06:45.236Z,19.94
2018-10-17T02:06:57.014Z,19.94
2018-10-17T02:07:08.852Z,19.93
2018-10-17T02:07:21.607Z,19.93
2018-10-17T02:07:33.360Z,19.95
2018-10-17T02:07:45.110Z,19.94
2018-10-17T02:07:56.877Z,19.95
2018-10-17T02:08:08.641Z,19.95
2018-10-17T02:08:20.420Z,19.95
2018-10-17T02:08:32.186Z,19.95
2018-10-17T02:08:43.952Z,19.96
2018-10-17T02:08:55.689Z,19.95
2018-10-17T02:09:07.454Z,19.95
2018-10-17T02:09:19.216Z,19.95
2018-10-17T02:09:30.973Z,19.94
2018-10-17T02:09:42.723Z,19.95
2018-10-17T02:09:54.483Z,19.96
2018-10-17T02:10:06.227Z,19.95
2018-10-17T02:10:18.159Z,19.95
2018-10-17T02:10:29.911Z,19.94
2018-10-17T02:10:42.671Z,19.95
2018-10-17T02:10:54.419Z,19.94
2018-10-17T02:11:06.238Z,19.96
2018-10-17T02:11:18.023Z,19.95
2018-10-17T02:11:29.716Z,19.96
2018-10-17T02:11:41.494Z,19.95
2018-10-17T02:11:53.246Z,19.95
2018-10-17T02:12:04.997Z,19.96
2018-10-17T02:12:16.743Z,19.95
2018-10-17T02:12:28.510Z,19.95
2018-10-17T02:12:40.308Z,19.95
2018-10-17T02:12:52.057Z,19.96
2018-10-17T02:13:03.887Z,19.95
2018-10-17T02:13:15.618Z,19.95
2018-10-17T02:13:27.384Z,19.94
2018-10-17T02:13:39.123Z,19.94
2018-10-17T02:13:50.879Z,19.94
2018-10-17T02:14:02.632Z,19.96
2018-10-17T02:14:14.386Z,19.94
2018-10-17T02:14:26.239Z,19.95
2018-10-17T02:14:37.992Z,19.95
2018-10-17T02:14:49.767Z,19.94
2018-10-17T02:15:01.519Z,19.94
2018-10-17T02:15:13.270Z,19.94
2018-10-17T02:15:25.014Z,19.94
2018-10-17T02:15:36.771Z,19.94
2018-10-17T02:15:48.721Z,19.94
2018-10-17T02:16:00.475Z,19.95
2018-10-17T02:16:12.224Z,19.95
2018-10-17T02:16:23.976Z,19.94
2018-10-17T02:16:35.800Z,19.94
2018-10-17T02:16:47.554Z,19.95
2018-10-17T02:16:59.323Z,19.95
2018-10-17T02:17:11.146Z,19.94
2018-10-17T02:17:22.850Z,19.94
2018-10-17T02:17:34.608Z,19.94
2018-10-17T02:17:46.389Z,19.94
2018-10-17T02:17:58.158Z,19.94
2018-10-17T02:18:09.989Z,19.94
2018-10-17T02:18:22.028Z,19.94
2018-10-17T02:18:33.783Z,19.94
2018-10-17T02:18:45.538Z,19.93
2018-10-17T02:18:57.302Z,19.95
2018-10-17T02:19:09.151Z,19.94
2018-10-17T02:19:20.836Z,19.94
2018-10-17T02:19:32.582Z,19.94
2018-10-17T02:19:44.356Z,19.94
2018-10-17T02:19:56.109Z,19.93
2018-10-17T02:20:07.858Z,19.94
2018-10-17T02:20:20.688Z,19.94
2018-10-17T02:20:32.525Z,19.93
2018-10-17T02:20:44.303Z,19.94
2018-10-17T02:20:56.074Z,19.95
2018-10-17T02:21:07.846Z,19.95
2018-10-17T02:21:19.619Z,19.95
2018-10-17T02:21:31.383Z,19.95
2018-10-17T02:21:43.133Z,19.94
2018-10-17T02:21:54.887Z,19.94
2018-10-17T02:22:06.647Z,19.93
2018-10-17T02:22:18.390Z,19.94
2018-10-17T02:22:30.148Z,19.94
2018-10-17T02:22:41.990Z,19.94
2018-10-17T02:22:53.768Z,19.94
2018-10-17T02:23:05.549Z,19.93
2018-10-17T02:23:18.005Z,19.93
2018-10-17T02:23:29.750Z,19.93
2018-10-17T02:23:41.507Z,19.92
2018-10-17T02:23:53.283Z,19.92
2018-10-17T02:24:05.029Z,19.93
2018-10-17T02:24:16.769Z,19.94
2018-10-17T02:24:28.522Z,19.93
2018-10-17T02:24:40.332Z,19.93
2018-10-17T02:24:52.116Z,19.93
2018-10-17T02:25:03.877Z,19.94
2018-10-17T02:25:15.668Z,19.93
2018-10-17T02:25:27.429Z,19.93
2018-10-17T02:25:39.185Z,19.94
2018-10-17T02:25:50.964Z,19.93
2018-10-17T02:26:03.702Z,19.94
2018-10-17T02:26:15.467Z,19.94
2018-10-17T02:26:27.224Z,19.93
2018-10-17T02:26:38.992Z,19.93
2018-10-17T02:26:50.750Z,19.93
2018-10-17T02:27:03.312Z,19.93
2018-10-17T02:27:15.060Z,19.94
2018-10-17T02:27:26.800Z,19.93
2018-10-17T02:27:38.564Z,19.93
2018-10-17T02:27:50.312Z,19.94
2018-10-17T02:28:02.091Z,19.93
2018-10-17T02:28:13.851Z,19.93
2018-10-17T02:28:25.619Z,19.93
2018-10-17T02:28:37.378Z,19.91
2018-10-17T02:28:50.331Z,19.92
2018-10-17T02:29:02.087Z,19.93
2018-10-17T02:29:13.934Z,19.92
2018-10-17T02:29:25.637Z,19.93
2018-10-17T02:29:37.373Z,19.94
2018-10-17T02:29:49.168Z,19.93
2018-10-17T02:30:01.019Z,19.93
2018-10-17T02:30:12.662Z,19.93
2018-10-17T02:30:24.398Z,19.92
2018-10-17T02:30:36.165Z,19.93
2018-10-17T02:30:47.955Z,19.92
2018-10-17T02:30:59.744Z,19.92
2018-10-17T02:31:11.510Z,19.92
2018-10-17T02:31:23.268Z,19.93
2018-10-17T02:31:35.036Z,19.91
2018-10-17T02:31:46.782Z,19.92
2018-10-17T02:31:58.526Z,19.92
2018-10-17T02:32:10.280Z,19.92
2018-10-17T02:32:22.050Z,19.92
2018-10-17T02:32:33.806Z,19.93
2018-10-17T02:32:45.590Z,19.93
2018-10-17T02:32:57.339Z,19.93
2018-10-17T02:33:09.089Z,19.93
2018-10-17T02:33:20.834Z,19.93
2018-10-17T02:33:32.608Z,19.93
2018-10-17T02:33:44.375Z,19.93
2018-10-17T02:33:57.061Z,19.92